sensor_id;sensor_type;location;lat;lon;timestamp;P1;durP1;ratioP1;P2;durP2;ratioP2
20468;SDS011;10393;52.460;13.322;2023-04-12T00:00:53;0.33;;;0.33;;
20468;SDS011;10393;52.460;13.322;2023-04-12T00:02:34;0.53;;;0.47;;
20468;SDS011;10393;52.460;13.322;2023-04-12T00:04:16;2.40;;;0.40;;
20468;SDS011;10393;52.460;13.322;2023-04-12T00:05:57;1.13;;;0.53;;
20468;SDS011;10393;52.460;13.322;2023-04-12T00:07:39;4.87;;;0.50;;
20468;SDS011;10393;52.460;13.322;2023-04-12T00:09:21;1.20;;;0.40;;
20468;SDS011;10393;52.460;13.322;2023-04-12T00:11:02;1.80;;;0.47;;
20468;SDS011;10393;52.460;13.322;2023-04-12T00:12:44;0.77;;;0.40;;
20468;SDS011;10393;52.460;13.322;2023-04-12T00:14:25;0.20;;;0.20;;
20468;SDS011;10393;52.460;13.322;2023-04-12T00:16:07;1.17;;;0.30;;
20468;SDS011;10393;52.460;13.322;2023-04-12T00:17:48;2.00;;;0.30;;
20468;SDS011;10393;52.460;13.322;2023-04-12T00:19:29;1.03;;;0.50;;
20468;SDS011;10393;52.460;13.322;2023-04-12T00:21:11;3.03;;;0.43;;
20468;SDS011;10393;52.460;13.322;2023-04-12T00:22:52;0.80;;;0.53;;
20468;SDS011;10393;52.460;13.322;2023-04-12T00:24:33;0.40;;;0.40;;
20468;SDS011;10393;52.460;13.322;2023-04-12T00:26:15;1.83;;;0.47;;
20468;SDS011;10393;52.460;13.322;2023-04-12T00:27:56;1.00;;;0.30;;
20468;SDS011;10393;52.460;13.322;2023-04-12T00:29:37;1.60;;;0.37;;
20468;SDS011;10393;52.460;13.322;2023-04-12T00:31:18;0.47;;;0.47;;
20468;SDS011;10393;52.460;13.322;2023-04-12T00:33:00;0.23;;;0.23;;
20468;SDS011;10393;52.460;13.322;2023-04-12T00:34:41;0.33;;;0.10;;
20468;SDS011;10393;52.460;13.322;2023-04-12T00:36:22;0.30;;;0.30;;
20468;SDS011;10393;52.460;13.322;2023-04-12T00:38:03;0.30;;;0.30;;
20468;SDS011;10393;52.460;13.322;2023-04-12T00:39:50;2.10;;;0.40;;
20468;SDS011;10393;52.460;13.322;2023-04-12T00:41:31;2.47;;;0.83;;
20468;SDS011;10393;52.460;13.322;2023-04-12T00:43:12;0.30;;;0.20;;
20468;SDS011;10393;52.460;13.322;2023-04-12T00:44:57;1.83;;;0.40;;
20468;SDS011;10393;52.460;13.322;2023-04-12T00:46:39;0.47;;;0.23;;
20468;SDS011;10393;52.460;13.322;2023-04-12T00:48:21;1.53;;;0.80;;
20468;SDS011;10393;52.460;13.322;2023-04-12T00:50:03;2.03;;;0.80;;
20468;SDS011;10393;52.460;13.322;2023-04-12T00:51:48;1.90;;;0.60;;
20468;SDS011;10393;52.460;13.322;2023-04-12T00:53:30;6.87;;;0.50;;
20468;SDS011;10393;52.460;13.322;2023-04-12T00:55:11;1.90;;;0.43;;
20468;SDS011;10393;52.460;13.322;2023-04-12T00:56:52;1.37;;;0.30;;
20468;SDS011;10393;52.460;13.322;2023-04-12T00:58:34;2.70;;;0.40;;
20468;SDS011;10393;52.460;13.322;2023-04-12T01:00:15;0.40;;;0.37;;
20468;SDS011;10393;52.460;13.322;2023-04-12T01:01:57;2.33;;;0.57;;
20468;SDS011;10393;52.460;13.322;2023-04-12T01:03:39;2.53;;;0.57;;
20468;SDS011;10393;52.460;13.322;2023-04-12T01:05:22;0.73;;;0.53;;
20468;SDS011;10393;52.460;13.322;2023-04-12T01:07:18;1.00;;;0.70;;
20468;SDS011;10393;52.460;13.322;2023-04-12T01:09:04;0.33;;;0.33;;
20468;SDS011;10393;52.460;13.322;2023-04-12T01:13:00;0.73;;;0.50;;
20468;SDS011;10393;52.460;13.322;2023-04-12T01:14:50;7.63;;;0.70;;
20468;SDS011;10393;52.460;13.322;2023-04-12T01:18:18;0.83;;;0.23;;
20468;SDS011;10393;52.460;13.322;2023-04-12T01:20:06;0.50;;;0.50;;
20468;SDS011;10393;52.460;13.322;2023-04-12T01:27:35;9.27;;;0.80;;
20468;SDS011;10393;52.460;13.322;2023-04-12T01:29:20;1.57;;;0.70;;
20468;SDS011;10393;52.460;13.322;2023-04-12T01:31:01;2.50;;;0.60;;
20468;SDS011;10393;52.460;13.322;2023-04-12T01:32:44;0.50;;;0.50;;
20468;SDS011;10393;52.460;13.322;2023-04-12T01:34:27;9.93;;;1.47;;
20468;SDS011;10393;52.460;13.322;2023-04-12T01:36:10;0.73;;;0.50;;
20468;SDS011;10393;52.460;13.322;2023-04-12T01:37:52;2.30;;;0.47;;
20468;SDS011;10393;52.460;13.322;2023-04-12T01:39:33;0.70;;;0.67;;
20468;SDS011;10393;52.460;13.322;2023-04-12T01:41:16;1.23;;;0.73;;
20468;SDS011;10393;52.460;13.322;2023-04-12T01:43:04;0.53;;;0.53;;
20468;SDS011;10393;52.460;13.322;2023-04-12T01:44:46;1.40;;;0.50;;
20468;SDS011;10393;52.460;13.322;2023-04-12T01:46:27;3.03;;;1.00;;
20468;SDS011;10393;52.460;13.322;2023-04-12T01:48:09;4.00;;;0.43;;
20468;SDS011;10393;52.460;13.322;2023-04-12T01:50:37;0.90;;;0.57;;
20468;SDS011;10393;52.460;13.322;2023-04-12T01:52:00;1.40;;;0.80;;
20468;SDS011;10393;52.460;13.322;2023-04-12T01:53:50;7.83;;;0.60;;
20468;SDS011;10393;52.460;13.322;2023-04-12T01:55:35;0.40;;;0.40;;
20468;SDS011;10393;52.460;13.322;2023-04-12T01:57:17;0.83;;;0.50;;
20468;SDS011;10393;52.460;13.322;2023-04-12T01:59:00;3.50;;;0.90;;
20468;SDS011;10393;52.460;13.322;2023-04-12T02:00:42;1.20;;;0.47;;
20468;SDS011;10393;52.460;13.322;2023-04-12T02:02:23;3.33;;;0.60;;
20468;SDS011;10393;52.460;13.322;2023-04-12T02:04:05;0.97;;;0.77;;
20468;SDS011;10393;52.460;13.322;2023-04-12T02:05:48;0.40;;;0.40;;
20468;SDS011;10393;52.460;13.322;2023-04-12T02:07:34;0.60;;;0.60;;
20468;SDS011;10393;52.460;13.322;2023-04-12T02:09:16;0.93;;;0.60;;
20468;SDS011;10393;52.460;13.322;2023-04-12T02:10:58;1.13;;;0.80;;
20468;SDS011;10393;52.460;13.322;2023-04-12T02:12:40;1.40;;;0.50;;
20468;SDS011;10393;52.460;13.322;2023-04-12T02:14:21;1.40;;;0.30;;
20468;SDS011;10393;52.460;13.322;2023-04-12T02:16:03;2.07;;;0.70;;
20468;SDS011;10393;52.460;13.322;2023-04-12T02:17:47;0.87;;;0.47;;
20468;SDS011;10393;52.460;13.322;2023-04-12T02:19:33;0.87;;;0.40;;
20468;SDS011;10393;52.460;13.322;2023-04-12T02:21:15;0.40;;;0.40;;
20468;SDS011;10393;52.460;13.322;2023-04-12T02:22:56;2.20;;;0.40;;
20468;SDS011;10393;52.460;13.322;2023-04-12T02:24:39;0.57;;;0.50;;
20468;SDS011;10393;52.460;13.322;2023-04-12T02:26:20;2.73;;;0.33;;
20468;SDS011;10393;52.460;13.322;2023-04-12T02:28:03;0.30;;;0.23;;
20468;SDS011;10393;52.460;13.322;2023-04-12T02:29:46;1.13;;;0.67;;
20468;SDS011;10393;52.460;13.322;2023-04-12T02:31:28;0.73;;;0.50;;
20468;SDS011;10393;52.460;13.322;2023-04-12T02:33:12;1.93;;;0.60;;
20468;SDS011;10393;52.460;13.322;2023-04-12T02:34:56;1.40;;;0.47;;
20468;SDS011;10393;52.460;13.322;2023-04-12T02:36:38;0.70;;;0.50;;
20468;SDS011;10393;52.460;13.322;2023-04-12T02:38:19;0.53;;;0.40;;
20468;SDS011;10393;52.460;13.322;2023-04-12T02:40:02;1.27;;;0.20;;
20468;SDS011;10393;52.460;13.322;2023-04-12T02:41:45;1.20;;;0.50;;
20468;SDS011;10393;52.460;13.322;2023-04-12T02:43:28;2.43;;;0.30;;
20468;SDS011;10393;52.460;13.322;2023-04-12T02:45:15;2.77;;;0.20;;
20468;SDS011;10393;52.460;13.322;2023-04-12T02:46:57;1.60;;;0.73;;
20468;SDS011;10393;52.460;13.322;2023-04-12T02:48:38;0.87;;;0.70;;
20468;SDS011;10393;52.460;13.322;2023-04-12T02:50:20;0.30;;;0.30;;
20468;SDS011;10393;52.460;13.322;2023-04-12T02:52:09;0.47;;;0.23;;
20468;SDS011;10393;52.460;13.322;2023-04-12T02:53:58;1.03;;;0.47;;
20468;SDS011;10393;52.460;13.322;2023-04-12T02:55:45;2.70;;;0.60;;
20468;SDS011;10393;52.460;13.322;2023-04-12T02:57:27;1.87;;;0.50;;
20468;SDS011;10393;52.460;13.322;2023-04-12T02:59:08;1.70;;;0.63;;
20468;SDS011;10393;52.460;13.322;2023-04-12T03:01:10;0.40;;;0.30;;
20468;SDS011;10393;52.460;13.322;2023-04-12T03:03:09;1.33;;;0.60;;
20468;SDS011;10393;52.460;13.322;2023-04-12T03:04:50;1.50;;;0.73;;
20468;SDS011;10393;52.460;13.322;2023-04-12T03:06:38;2.30;;;0.73;;
20468;SDS011;10393;52.460;13.322;2023-04-12T03:08:32;0.73;;;0.60;;
20468;SDS011;10393;52.460;13.322;2023-04-12T03:10:14;3.23;;;0.87;;
20468;SDS011;10393;52.460;13.322;2023-04-12T03:12:04;0.43;;;0.43;;
20468;SDS011;10393;52.460;13.322;2023-04-12T03:13:50;0.83;;;0.50;;
20468;SDS011;10393;52.460;13.322;2023-04-12T03:15:32;5.67;;;0.37;;
20468;SDS011;10393;52.460;13.322;2023-04-12T03:17:14;1.83;;;0.87;;
20468;SDS011;10393;52.460;13.322;2023-04-12T03:18:56;0.37;;;0.37;;
20468;SDS011;10393;52.460;13.322;2023-04-12T03:20:39;0.20;;;0.20;;
20468;SDS011;10393;52.460;13.322;2023-04-12T03:22:23;2.17;;;0.50;;
20468;SDS011;10393;52.460;13.322;2023-04-12T03:24:09;2.07;;;0.40;;
20468;SDS011;10393;52.460;13.322;2023-04-12T03:25:51;0.67;;;0.30;;
20468;SDS011;10393;52.460;13.322;2023-04-12T03:27:46;7.23;;;0.63;;
20468;SDS011;10393;52.460;13.322;2023-04-12T03:29:31;0.57;;;0.57;;
20468;SDS011;10393;52.460;13.322;2023-04-12T03:31:13;4.23;;;0.97;;
20468;SDS011;10393;52.460;13.322;2023-04-12T03:32:59;1.13;;;0.50;;
20468;SDS011;10393;52.460;13.322;2023-04-12T03:34:40;0.60;;;0.30;;
20468;SDS011;10393;52.460;13.322;2023-04-12T03:36:26;1.13;;;0.57;;
20468;SDS011;10393;52.460;13.322;2023-04-12T03:38:16;0.70;;;0.53;;
20468;SDS011;10393;52.460;13.322;2023-04-12T03:39:57;0.43;;;0.43;;
20468;SDS011;10393;52.460;13.322;2023-04-12T03:41:39;1.70;;;0.90;;
20468;SDS011;10393;52.460;13.322;2023-04-12T03:43:21;0.40;;;0.40;;
20468;SDS011;10393;52.460;13.322;2023-04-12T03:45:03;4.23;;;0.70;;
20468;SDS011;10393;52.460;13.322;2023-04-12T03:46:44;0.87;;;0.30;;
20468;SDS011;10393;52.460;13.322;2023-04-12T03:48:26;6.40;;;0.50;;
20468;SDS011;10393;52.460;13.322;2023-04-12T03:50:07;0.50;;;0.40;;
20468;SDS011;10393;52.460;13.322;2023-04-12T03:51:50;1.80;;;0.60;;
20468;SDS011;10393;52.460;13.322;2023-04-12T03:53:32;0.60;;;0.50;;
20468;SDS011;10393;52.460;13.322;2023-04-12T03:55:13;2.33;;;0.40;;
20468;SDS011;10393;52.460;13.322;2023-04-12T03:56:57;1.07;;;0.47;;
20468;SDS011;10393;52.460;13.322;2023-04-12T03:58:49;4.33;;;0.90;;
20468;SDS011;10393;52.460;13.322;2023-04-12T04:00:32;1.73;;;0.73;;
20468;SDS011;10393;52.460;13.322;2023-04-12T04:02:20;2.07;;;0.60;;
20468;SDS011;10393;52.460;13.322;2023-04-12T04:04:03;0.97;;;0.87;;
20468;SDS011;10393;52.460;13.322;2023-04-12T04:05:46;0.77;;;0.43;;
20468;SDS011;10393;52.460;13.322;2023-04-12T04:07:30;1.27;;;0.77;;
20468;SDS011;10393;52.460;13.322;2023-04-12T04:09:12;2.70;;;1.13;;
20468;SDS011;10393;52.460;13.322;2023-04-12T04:10:53;7.20;;;0.53;;
20468;SDS011;10393;52.460;13.322;2023-04-12T04:12:40;1.30;;;0.93;;
20468;SDS011;10393;52.460;13.322;2023-04-12T04:14:25;2.23;;;0.67;;
20468;SDS011;10393;52.460;13.322;2023-04-12T04:16:07;6.83;;;0.97;;
20468;SDS011;10393;52.460;13.322;2023-04-12T04:17:50;0.77;;;0.57;;
20468;SDS011;10393;52.460;13.322;2023-04-12T04:19:33;0.40;;;0.40;;
20468;SDS011;10393;52.460;13.322;2023-04-12T04:21:15;0.60;;;0.40;;
20468;SDS011;10393;52.460;13.322;2023-04-12T04:22:56;0.80;;;0.70;;
20468;SDS011;10393;52.460;13.322;2023-04-12T04:24:39;0.60;;;0.40;;
20468;SDS011;10393;52.460;13.322;2023-04-12T04:26:21;6.90;;;0.97;;
20468;SDS011;10393;52.460;13.322;2023-04-12T04:28:17;0.40;;;0.40;;
20468;SDS011;10393;52.460;13.322;2023-04-12T04:29:58;1.03;;;0.60;;
20468;SDS011;10393;52.460;13.322;2023-04-12T04:31:42;0.77;;;0.70;;
20468;SDS011;10393;52.460;13.322;2023-04-12T04:33:26;1.07;;;0.67;;
20468;SDS011;10393;52.460;13.322;2023-04-12T04:35:10;0.40;;;0.40;;
20468;SDS011;10393;52.460;13.322;2023-04-12T04:37:03;2.27;;;1.33;;
20468;SDS011;10393;52.460;13.322;2023-04-12T04:38:45;1.83;;;0.80;;
20468;SDS011;10393;52.460;13.322;2023-04-12T04:40:37;0.33;;;0.33;;
20468;SDS011;10393;52.460;13.322;2023-04-12T04:42:22;2.00;;;0.80;;
20468;SDS011;10393;52.460;13.322;2023-04-12T04:44:12;1.17;;;1.10;;
20468;SDS011;10393;52.460;13.322;2023-04-12T04:46:03;0.87;;;0.80;;
20468;SDS011;10393;52.460;13.322;2023-04-12T04:47:44;0.30;;;0.30;;
20468;SDS011;10393;52.460;13.322;2023-04-12T04:49:25;0.40;;;0.40;;
20468;SDS011;10393;52.460;13.322;2023-04-12T04:51:10;0.67;;;0.47;;
20468;SDS011;10393;52.460;13.322;2023-04-12T04:52:52;1.30;;;0.30;;
20468;SDS011;10393;52.460;13.322;2023-04-12T04:54:34;2.53;;;0.80;;
20468;SDS011;10393;52.460;13.322;2023-04-12T04:56:15;0.90;;;0.60;;
20468;SDS011;10393;52.460;13.322;2023-04-12T04:57:58;3.90;;;1.07;;
20468;SDS011;10393;52.460;13.322;2023-04-12T04:59:40;0.77;;;0.57;;
20468;SDS011;10393;52.460;13.322;2023-04-12T05:01:31;6.40;;;1.30;;
20468;SDS011;10393;52.460;13.322;2023-04-12T05:03:15;2.83;;;0.63;;
20468;SDS011;10393;52.460;13.322;2023-04-12T05:04:57;0.70;;;0.40;;
20468;SDS011;10393;52.460;13.322;2023-04-12T05:06:41;6.60;;;1.73;;
20468;SDS011;10393;52.460;13.322;2023-04-12T05:08:24;1.50;;;0.60;;
20468;SDS011;10393;52.460;13.322;2023-04-12T05:10:08;0.83;;;0.70;;
20468;SDS011;10393;52.460;13.322;2023-04-12T05:11:52;0.60;;;0.60;;
20468;SDS011;10393;52.460;13.322;2023-04-12T05:13:34;2.93;;;1.13;;
20468;SDS011;10393;52.460;13.322;2023-04-12T05:15:15;2.33;;;0.80;;
20468;SDS011;10393;52.460;13.322;2023-04-12T05:16:56;2.00;;;1.20;;
20468;SDS011;10393;52.460;13.322;2023-04-12T05:18:40;1.60;;;0.70;;
20468;SDS011;10393;52.460;13.322;2023-04-12T05:20:21;1.30;;;0.77;;
20468;SDS011;10393;52.460;13.322;2023-04-12T05:22:02;1.30;;;0.90;;
20468;SDS011;10393;52.460;13.322;2023-04-12T05:23:44;2.40;;;0.87;;
20468;SDS011;10393;52.460;13.322;2023-04-12T05:25:26;0.37;;;0.37;;
20468;SDS011;10393;52.460;13.322;2023-04-12T05:27:16;2.03;;;1.30;;
20468;SDS011;10393;52.460;13.322;2023-04-12T05:29:00;3.23;;;1.17;;
20468;SDS011;10393;52.460;13.322;2023-04-12T05:30:42;3.07;;;1.63;;
20468;SDS011;10393;52.460;13.322;2023-04-12T05:32:25;1.53;;;1.07;;
20468;SDS011;10393;52.460;13.322;2023-04-12T05:34:06;1.70;;;0.77;;
20468;SDS011;10393;52.460;13.322;2023-04-12T05:35:55;1.73;;;1.00;;
20468;SDS011;10393;52.460;13.322;2023-04-12T05:37:36;2.00;;;0.90;;
20468;SDS011;10393;52.460;13.322;2023-04-12T05:39:17;1.90;;;0.80;;
20468;SDS011;10393;52.460;13.322;2023-04-12T05:40:59;0.80;;;0.63;;
20468;SDS011;10393;52.460;13.322;2023-04-12T05:42:44;1.57;;;0.53;;
20468;SDS011;10393;52.460;13.322;2023-04-12T05:44:27;3.33;;;0.60;;
20468;SDS011;10393;52.460;13.322;2023-04-12T05:46:09;2.78;;;1.08;;
20468;SDS011;10393;52.460;13.322;2023-04-12T05:47:52;2.20;;;1.20;;
20468;SDS011;10393;52.460;13.322;2023-04-12T05:49:33;2.83;;;1.17;;
20468;SDS011;10393;52.460;13.322;2023-04-12T05:51:18;1.65;;;0.98;;
20468;SDS011;10393;52.460;13.322;2023-04-12T05:53:00;5.40;;;1.15;;
20468;SDS011;10393;52.460;13.322;2023-04-12T05:54:44;5.38;;;0.90;;
20468;SDS011;10393;52.460;13.322;2023-04-12T05:56:29;5.00;;;1.10;;
20468;SDS011;10393;52.460;13.322;2023-04-12T05:58:11;4.20;;;1.30;;
20468;SDS011;10393;52.460;13.322;2023-04-12T05:59:52;1.48;;;1.25;;
20468;SDS011;10393;52.460;13.322;2023-04-12T06:01:34;2.55;;;1.85;;
20468;SDS011;10393;52.460;13.322;2023-04-12T06:03:15;7.18;;;2.70;;
20468;SDS011;10393;52.460;13.322;2023-04-12T06:04:57;2.53;;;1.55;;
20468;SDS011;10393;52.460;13.322;2023-04-12T06:06:40;1.58;;;1.35;;
20468;SDS011;10393;52.460;13.322;2023-04-12T06:08:22;2.28;;;1.48;;
20468;SDS011;10393;52.460;13.322;2023-04-12T06:10:04;3.05;;;1.23;;
20468;SDS011;10393;52.460;13.322;2023-04-12T06:11:46;2.45;;;1.38;;
20468;SDS011;10393;52.460;13.322;2023-04-12T06:13:27;1.80;;;1.10;;
20468;SDS011;10393;52.460;13.322;2023-04-12T06:15:09;4.43;;;1.27;;
20468;SDS011;10393;52.460;13.322;2023-04-12T06:16:50;3.33;;;1.35;;
20468;SDS011;10393;52.460;13.322;2023-04-12T06:18:31;2.47;;;1.40;;
20468;SDS011;10393;52.460;13.322;2023-04-12T06:20:13;1.17;;;1.02;;
20468;SDS011;10393;52.460;13.322;2023-04-12T06:21:55;2.22;;;1.30;;
20468;SDS011;10393;52.460;13.322;2023-04-12T06:23:36;5.03;;;2.33;;
20468;SDS011;10393;52.460;13.322;2023-04-12T06:25:17;2.17;;;1.15;;
20468;SDS011;10393;52.460;13.322;2023-04-12T06:27:01;1.55;;;1.45;;
20468;SDS011;10393;52.460;13.322;2023-04-12T06:28:42;1.98;;;1.50;;
20468;SDS011;10393;52.460;13.322;2023-04-12T06:30:24;4.35;;;2.03;;
20468;SDS011;10393;52.460;13.322;2023-04-12T06:32:06;2.28;;;1.67;;
20468;SDS011;10393;52.460;13.322;2023-04-12T06:33:48;6.90;;;1.90;;
20468;SDS011;10393;52.460;13.322;2023-04-12T06:35:29;4.35;;;1.83;;
20468;SDS011;10393;52.460;13.322;2023-04-12T06:37:11;3.85;;;1.90;;
20468;SDS011;10393;52.460;13.322;2023-04-12T06:38:52;3.75;;;1.80;;
20468;SDS011;10393;52.460;13.322;2023-04-12T06:40:34;3.78;;;2.03;;
20468;SDS011;10393;52.460;13.322;2023-04-12T06:42:15;2.00;;;1.58;;
20468;SDS011;10393;52.460;13.322;2023-04-12T06:43:57;2.17;;;1.70;;
20468;SDS011;10393;52.460;13.322;2023-04-12T06:45:38;1.65;;;1.52;;
20468;SDS011;10393;52.460;13.322;2023-04-12T06:47:19;2.70;;;1.63;;
20468;SDS011;10393;52.460;13.322;2023-04-12T06:49:01;2.42;;;1.30;;
20468;SDS011;10393;52.460;13.322;2023-04-12T06:50:43;2.80;;;1.35;;
20468;SDS011;10393;52.460;13.322;2023-04-12T06:52:24;4.25;;;2.05;;
20468;SDS011;10393;52.460;13.322;2023-04-12T06:54:06;3.03;;;1.40;;
20468;SDS011;10393;52.460;13.322;2023-04-12T06:55:47;3.20;;;2.25;;
20468;SDS011;10393;52.460;13.322;2023-04-12T06:57:28;2.28;;;1.95;;
20468;SDS011;10393;52.460;13.322;2023-04-12T06:59:09;5.35;;;1.73;;
20468;SDS011;10393;52.460;13.322;2023-04-12T07:00:51;2.20;;;1.25;;
20468;SDS011;10393;52.460;13.322;2023-04-12T07:02:32;2.67;;;1.30;;
20468;SDS011;10393;52.460;13.322;2023-04-12T07:04:13;5.93;;;2.75;;
20468;SDS011;10393;52.460;13.322;2023-04-12T07:05:55;2.67;;;1.95;;
20468;SDS011;10393;52.460;13.322;2023-04-12T07:07:38;1.95;;;1.17;;
20468;SDS011;10393;52.460;13.322;2023-04-12T07:09:20;4.20;;;1.42;;
20468;SDS011;10393;52.460;13.322;2023-04-12T07:11:01;5.20;;;1.40;;
20468;SDS011;10393;52.460;13.322;2023-04-12T07:12:43;2.95;;;1.20;;
20468;SDS011;10393;52.460;13.322;2023-04-12T07:14:24;1.92;;;1.25;;
20468;SDS011;10393;52.460;13.322;2023-04-12T07:16:05;3.42;;;1.27;;
20468;SDS011;10393;52.460;13.322;2023-04-12T07:17:47;1.73;;;1.10;;
20468;SDS011;10393;52.460;13.322;2023-04-12T07:19:28;1.58;;;0.90;;
20468;SDS011;10393;52.460;13.322;2023-04-12T07:21:10;2.17;;;1.00;;
20468;SDS011;10393;52.460;13.322;2023-04-12T07:22:56;4.07;;;0.95;;
20468;SDS011;10393;52.460;13.322;2023-04-12T07:24:37;2.83;;;1.38;;
20468;SDS011;10393;52.460;13.322;2023-04-12T07:26:18;2.78;;;1.15;;
20468;SDS011;10393;52.460;13.322;2023-04-12T07:28:00;2.20;;;1.10;;
20468;SDS011;10393;52.460;13.322;2023-04-12T07:29:42;2.40;;;2.08;;
20468;SDS011;10393;52.460;13.322;2023-04-12T07:31:24;2.33;;;1.23;;
20468;SDS011;10393;52.460;13.322;2023-04-12T07:33:05;1.85;;;1.30;;
20468;SDS011;10393;52.460;13.322;2023-04-12T07:34:46;3.10;;;1.10;;
20468;SDS011;10393;52.460;13.322;2023-04-12T07:36:28;2.17;;;1.40;;
20468;SDS011;10393;52.460;13.322;2023-04-12T07:38:10;1.27;;;1.17;;
20468;SDS011;10393;52.460;13.322;2023-04-12T07:39:51;2.05;;;1.30;;
20468;SDS011;10393;52.460;13.322;2023-04-12T07:41:32;2.15;;;1.20;;
20468;SDS011;10393;52.460;13.322;2023-04-12T07:43:14;4.68;;;1.50;;
20468;SDS011;10393;52.460;13.322;2023-04-12T07:44:56;2.78;;;1.33;;
20468;SDS011;10393;52.460;13.322;2023-04-12T07:46:37;3.03;;;1.30;;
20468;SDS011;10393;52.460;13.322;2023-04-12T07:48:19;2.45;;;0.90;;
20468;SDS011;10393;52.460;13.322;2023-04-12T07:50:00;1.70;;;0.80;;
20468;SDS011;10393;52.460;13.322;2023-04-12T07:51:43;1.92;;;1.20;;
20468;SDS011;10393;52.460;13.322;2023-04-12T07:53:25;1.83;;;0.90;;
20468;SDS011;10393;52.460;13.322;2023-04-12T07:55:06;2.78;;;0.80;;
20468;SDS011;10393;52.460;13.322;2023-04-12T07:56:58;5.28;;;1.00;;
20468;SDS011;10393;52.460;13.322;2023-04-12T07:58:40;2.63;;;1.10;;
20468;SDS011;10393;52.460;13.322;2023-04-12T08:00:21;3.72;;;0.70;;
20468;SDS011;10393;52.460;13.322;2023-04-12T08:02:02;1.90;;;0.70;;
20468;SDS011;10393;52.460;13.322;2023-04-12T08:03:45;4.15;;;1.10;;
20468;SDS011;10393;52.460;13.322;2023-04-12T08:05:26;1.23;;;0.68;;
20468;SDS011;10393;52.460;13.322;2023-04-12T08:07:08;2.15;;;0.95;;
20468;SDS011;10393;52.460;13.322;2023-04-12T08:08:49;1.92;;;0.73;;
20468;SDS011;10393;52.460;13.322;2023-04-12T08:10:30;4.95;;;0.75;;
20468;SDS011;10393;52.460;13.322;2023-04-12T08:12:11;1.15;;;0.30;;
20468;SDS011;10393;52.460;13.322;2023-04-12T08:13:52;1.23;;;0.50;;
20468;SDS011;10393;52.460;13.322;2023-04-12T08:15:34;2.75;;;0.50;;
20468;SDS011;10393;52.460;13.322;2023-04-12T08:17:15;3.25;;;0.50;;
20468;SDS011;10393;52.460;13.322;2023-04-12T08:18:56;0.30;;;0.20;;
20468;SDS011;10393;52.460;13.322;2023-04-12T08:20:38;2.72;;;0.60;;
20468;SDS011;10393;52.460;13.322;2023-04-12T08:22:26;1.65;;;0.50;;
20468;SDS011;10393;52.460;13.322;2023-04-12T08:24:07;2.00;;;0.40;;
20468;SDS011;10393;52.460;13.322;2023-04-12T08:25:49;1.00;;;0.43;;
20468;SDS011;10393;52.460;13.322;2023-04-12T08:27:30;3.00;;;0.43;;
20468;SDS011;10393;52.460;13.322;2023-04-12T08:29:11;2.85;;;0.17;;
20468;SDS011;10393;52.460;13.322;2023-04-12T08:30:52;0.45;;;0.30;;
20468;SDS011;10393;52.460;13.322;2023-04-12T08:32:34;2.97;;;0.40;;
20468;SDS011;10393;52.460;13.322;2023-04-12T08:34:16;1.27;;;0.30;;
20468;SDS011;10393;52.460;13.322;2023-04-12T08:35:57;0.50;;;0.30;;
20468;SDS011;10393;52.460;13.322;2023-04-12T08:37:39;1.55;;;0.65;;
20468;SDS011;10393;52.460;13.322;2023-04-12T08:39:20;1.02;;;0.30;;
20468;SDS011;10393;52.460;13.322;2023-04-12T08:41:05;2.13;;;0.50;;
20468;SDS011;10393;52.460;13.322;2023-04-12T08:42:46;0.22;;;0.22;;
20468;SDS011;10393;52.460;13.322;2023-04-12T08:44:32;1.58;;;0.30;;
20468;SDS011;10393;52.460;13.322;2023-04-12T08:46:15;2.40;;;0.40;;
20468;SDS011;10393;52.460;13.322;2023-04-12T08:47:57;0.90;;;0.28;;
20468;SDS011;10393;52.460;13.322;2023-04-12T08:49:40;4.45;;;0.40;;
20468;SDS011;10393;52.460;13.322;2023-04-12T08:51:21;2.78;;;0.20;;
20468;SDS011;10393;52.460;13.322;2023-04-12T08:53:02;1.08;;;0.28;;
20468;SDS011;10393;52.460;13.322;2023-04-12T08:54:44;2.05;;;0.20;;
20468;SDS011;10393;52.460;13.322;2023-04-12T08:56:25;1.17;;;0.30;;
20468;SDS011;10393;52.460;13.322;2023-04-12T08:58:07;1.35;;;0.60;;
20468;SDS011;10393;52.460;13.322;2023-04-12T08:59:48;1.45;;;0.20;;
20468;SDS011;10393;52.460;13.322;2023-04-12T09:01:30;2.10;;;0.20;;
20468;SDS011;10393;52.460;13.322;2023-04-12T09:03:11;3.30;;;0.50;;
20468;SDS011;10393;52.460;13.322;2023-04-12T09:04:52;1.92;;;0.77;;
20468;SDS011;10393;52.460;13.322;2023-04-12T09:06:34;2.38;;;0.68;;
20468;SDS011;10393;52.460;13.322;2023-04-12T09:08:15;2.63;;;0.70;;
20468;SDS011;10393;52.460;13.322;2023-04-12T09:09:57;1.60;;;0.50;;
20468;SDS011;10393;52.460;13.322;2023-04-12T09:11:39;2.15;;;0.40;;
20468;SDS011;10393;52.460;13.322;2023-04-12T09:13:32;1.13;;;0.52;;
20468;SDS011;10393;52.460;13.322;2023-04-12T09:15:16;2.13;;;0.32;;
20468;SDS011;10393;52.460;13.322;2023-04-12T09:16:57;0.17;;;0.17;;
20468;SDS011;10393;52.460;13.322;2023-04-12T09:18:47;1.30;;;0.60;;
20468;SDS011;10393;52.460;13.322;2023-04-12T09:20:29;2.20;;;0.55;;
20468;SDS011;10393;52.460;13.322;2023-04-12T09:22:10;2.00;;;0.45;;
20468;SDS011;10393;52.460;13.322;2023-04-12T09:24:07;1.50;;;0.60;;
20468;SDS011;10393;52.460;13.322;2023-04-12T09:25:49;0.95;;;0.32;;
20468;SDS011;10393;52.460;13.322;2023-04-12T09:27:48;0.70;;;0.40;;
20468;SDS011;10393;52.460;13.322;2023-04-12T09:29:29;0.10;;;0.10;;
20468;SDS011;10393;52.460;13.322;2023-04-12T09:31:14;4.38;;;0.20;;
20468;SDS011;10393;52.460;13.322;2023-04-12T09:33:09;2.47;;;0.50;;
20468;SDS011;10393;52.460;13.322;2023-04-12T09:34:56;1.42;;;0.38;;
20468;SDS011;10393;52.460;13.322;2023-04-12T09:36:39;0.10;;;0.10;;
20468;SDS011;10393;52.460;13.322;2023-04-12T09:38:21;1.95;;;0.50;;
20468;SDS011;10393;52.460;13.322;2023-04-12T09:40:03;7.20;;;0.40;;
20468;SDS011;10393;52.460;13.322;2023-04-12T09:42:02;3.75;;;0.50;;
20468;SDS011;10393;52.460;13.322;2023-04-12T09:43:44;4.88;;;0.43;;
20468;SDS011;10393;52.460;13.322;2023-04-12T09:45:27;0.75;;;0.75;;
20468;SDS011;10393;52.460;13.322;2023-04-12T09:47:10;1.73;;;0.38;;
20468;SDS011;10393;52.460;13.322;2023-04-12T09:48:52;2.72;;;0.50;;
20468;SDS011;10393;52.460;13.322;2023-04-12T09:50:34;0.45;;;0.30;;
20468;SDS011;10393;52.460;13.322;2023-04-12T09:52:17;0.77;;;0.70;;
20468;SDS011;10393;52.460;13.322;2023-04-12T09:53:59;2.33;;;0.43;;
20468;SDS011;10393;52.460;13.322;2023-04-12T09:55:41;1.63;;;0.45;;
20468;SDS011;10393;52.460;13.322;2023-04-12T09:57:22;2.78;;;0.70;;
20468;SDS011;10393;52.460;13.322;2023-04-12T09:59:04;1.42;;;0.50;;
20468;SDS011;10393;52.460;13.322;2023-04-12T10:00:50;2.05;;;0.28;;
20468;SDS011;10393;52.460;13.322;2023-04-12T10:02:31;4.50;;;0.50;;
20468;SDS011;10393;52.460;13.322;2023-04-12T10:04:13;1.75;;;0.57;;
20468;SDS011;10393;52.460;13.322;2023-04-12T10:05:54;6.75;;;0.40;;
20468;SDS011;10393;52.460;13.322;2023-04-12T10:07:35;1.20;;;0.60;;
20468;SDS011;10393;52.460;13.322;2023-04-12T10:09:16;1.45;;;0.40;;
20468;SDS011;10393;52.460;13.322;2023-04-12T10:10:58;1.80;;;0.60;;
20468;SDS011;10393;52.460;13.322;2023-04-12T10:12:40;0.32;;;0.20;;
20468;SDS011;10393;52.460;13.322;2023-04-12T10:14:21;0.35;;;0.20;;
20468;SDS011;10393;52.460;13.322;2023-04-12T10:16:03;0.10;;;0.10;;
20468;SDS011;10393;52.460;13.322;2023-04-12T10:17:46;1.30;;;0.50;;
20468;SDS011;10393;52.460;13.322;2023-04-12T10:19:28;3.33;;;0.35;;
20468;SDS011;10393;52.460;13.322;2023-04-12T10:21:09;2.63;;;0.30;;